< Cyclone 197415 1974 Season Cyclone 197417 >
Cyclone 197416 (ISOBEL)
General InformationTrack Information on Google Maps || ResourceGoogle EarthGE AnimationAtom FeedGeoJSON
Detalied Best Track (Time Zone = UTC)
Year Month Day Hour Lat. Long. Pressure (hPa) Wind (kt) Class Image Chart
1974 3 9 01 -12.2 111.6 1003 0 0 -- --
1974 3 9 04 -12.2 111.5 1003 0 0 -- --
1974 3 9 07 -12.3 111.4 1003 0 0 -- --
1974 3 9 10 -12.4 111.2 1003 0 0 -- --
1974 3 9 13 -12.5 111.0 1003 0 0 -- --
1974 3 9 16 -12.5 110.8 1003 0 0 -- --
1974 3 9 19 -12.6 110.6 1003 0 0 -- --
1974 3 9 22 -12.7 110.5 1003 0 0 -- --
1974 3 10 01 -12.9 110.3 1003 0 0 -- --
1974 3 10 04 -13.1 110.2 1002 0 0 -- --
1974 3 10 07 -13.2 110.1 1001 0 0 -- --
1974 3 10 10 -13.2 109.9 1001 0 0 -- --
1974 3 10 13 -13.3 109.7 1000 0 0 -- --
1974 3 10 16 -13.4 109.6 1000 0 0 -- --
1974 3 10 19 -13.5 109.5 1000 0 0 -- --
1974 3 10 22 -13.5 109.4 1000 0 0 -- --
1974 3 11 01 -13.7 109.3 999 0 0 -- --
1974 3 11 04 -13.8 109.3 996 0 0 -- --
1974 3 11 07 -13.9 109.2 993 0 0 -- --
1974 3 11 10 -14.1 109.1 991 0 0 -- --
1974 3 11 13 -14.2 108.9 989 0 0 -- --
1974 3 11 16 -14.3 108.8 984 0 0 -- --
1974 3 11 19 -14.5 108.7 985 0 0 -- --
1974 3 11 22 -14.6 108.6 983 0 0 -- --
1974 3 12 01 -14.7 108.6 981 0 0 -- --
1974 3 12 04 -15.1 108.5 980 0 0 -- --
1974 3 12 07 -15.5 108.4 978 0 0 -- --
1974 3 12 10 -16.0 108.3 977 0 0 -- --
1974 3 12 13 -16.4 108.2 976 0 0 -- --
1974 3 12 16 -16.7 108.1 975 0 0 -- --
1974 3 12 19 -17.2 107.9 974 0 0 -- --
1974 3 12 22 -17.5 107.7 974 0 0 -- --
1974 3 13 01 -18.0 107.6 973 0 0 -- --
1974 3 13 04 -18.5 107.4 975 0 0 -- --
1974 3 13 07 -19.1 107.2 975 0 0 -- --
1974 3 13 10 -19.5 106.9 977 0 0 -- --
1974 3 13 13 -20.1 106.6 982 0 0 -- --
1974 3 13 16 -20.3 106.2 986 0 0 -- --
1974 3 13 19 -20.6 105.7 985 0 0 -- --
1974 3 13 22 -20.9 105.4 986 0 0 -- --
1974 3 14 01 -21.2 104.9 988 0 0 -- --
1974 3 14 04 -21.5 104.4 990 0 0 -- --
1974 3 14 07 -21.7 103.7 989 0 0 -- --
1974 3 14 10 -22.1 103.3 990 0 0 -- --
1974 3 14 13 -22.4 102.6 993 0 0 -- --
1974 3 14 16 -22.7 102.0 994 0 0 -- --
1974 3 14 19 -23.0 101.3 993 0 0 -- --
1974 3 14 22 -23.3 100.7 993 0 0 -- --
1974 3 15 01 -23.5 100.1 994 0 0 -- --
1974 3 15 04 -23.6 99.5 995 0 0 -- --
1974 3 15 07 -23.6 98.7 994 0 0 -- --
1974 3 15 10 -23.5 98.1 996 0 0 -- --
1974 3 15 13 -23.3 97.4 1000 0 0 -- --
1974 3 15 16 -23.1 96.8 1003 0 0 -- --
1974 3 15 19 -22.9 96.1 1002 0 0 -- --
1974 3 15 22 -22.7 95.5 1002 0 0 -- --
1974 3 16 01 -22.5 94.9 1003 0 0 -- --
1974 3 16 04 -22.4 94.6 1004 0 0 -- --
1974 3 16 07 -22.2 94.3 1003 0 0 -- --
1974 3 16 10 -21.9 93.8 1004 0 0 -- --
1974 3 16 13 -21.8 93.3 1005 0 0 -- --
1974 3 16 16 -21.7 92.9 1006 0 0 -- --
1974 3 16 19 -21.6 92.5 1005 0 0 -- --
1974 3 16 22 -21.4 92.1 1005 0 0 -- --
1974 3 17 01 -21.3 91.7 1006 0 0 -- --
< Cyclone 197415 1974 Season Cyclone 197417 >

Help